KLM84A LIRF-EHAM
Flight info
| Callsign | KLM84A |
|---|---|
| Flight time | N/A |
| Altitude | 32000 |
| Route | NEMBO DCT GOVGO DCT AOSTA DCT ORSUD DCT MOLUS DCT GILIR DCT PENDU DCT IXILU DCT EPL DCT ROUSY DCT IDOSA DCT KOMOB DCT BUB Y28 HELEN |
| Aircraft | B732/M-SDFGHRWY/S |
Departure
| Time | N/A |
|---|---|
| Airport | Rome–Fiumicino Leonardo da Vinci International Airport (LIRF) |
Arrival
| Time | 2026-05-06 15:29 |
|---|---|
| Airport | Amsterdam Airport Schiphol (EHAM) |
| Time | Latitude | Longitude | Altitude | Speed | Heading |
|---|---|---|---|---|---|
| 2026-05-06 13:40 | 41.79116 | 11.56647 | 18655 ft | 359 kts | 281° |
| 2026-05-06 13:41 | 41.80105 | 11.53530 | 19311 ft | 368 kts | 298° |
| 2026-05-06 13:41 | 41.81678 | 11.50836 | 19989 ft | 373 kts | 307° |
| 2026-05-06 13:41 | 41.83398 | 11.48225 | 20608 ft | 376 kts | 307° |
| 2026-05-06 13:41 | 41.85120 | 11.45632 | 21186 ft | 379 kts | 307° |
| 2026-05-06 13:42 | 41.86884 | 11.42965 | 21768 ft | 381 kts | 307° |
| 2026-05-06 13:42 | 41.88633 | 11.40305 | 22336 ft | 383 kts | 306° |
| 2026-05-06 13:42 | 41.90398 | 11.37611 | 22877 ft | 386 kts | 306° |
| 2026-05-06 13:42 | 41.92174 | 11.34899 | 23428 ft | 389 kts | 305° |
| 2026-05-06 13:43 | 41.93951 | 11.32179 | 23956 ft | 391 kts | 305° |
| 2026-05-06 13:43 | 41.95752 | 11.29416 | 24470 ft | 394 kts | 305° |
| 2026-05-06 13:43 | 41.97564 | 11.26631 | 24989 ft | 397 kts | 305° |
| 2026-05-06 13:43 | 41.99376 | 11.23848 | 25499 ft | 398 kts | 304° |
| 2026-05-06 13:44 | 42.01189 | 11.21059 | 25988 ft | 400 kts | 304° |
| 2026-05-06 13:44 | 42.03032 | 11.18218 | 26463 ft | 402 kts | 304° |
| 2026-05-06 13:44 | 42.04846 | 11.15422 | 26890 ft | 404 kts | 304° |
| 2026-05-06 13:44 | 42.06703 | 11.12553 | 27342 ft | 406 kts | 304° |
| 2026-05-06 13:45 | 42.08571 | 11.09664 | 27765 ft | 408 kts | 304° |
| 2026-05-06 13:45 | 42.12283 | 11.03917 | 28587 ft | 411 kts | 303° |
| 2026-05-06 13:45 | 42.14169 | 11.00994 | 28965 ft | 412 kts | 304° |
| 2026-05-06 13:46 | 42.16055 | 10.98069 | 29353 ft | 413 kts | 303° |
| 2026-05-06 13:46 | 42.17937 | 10.95144 | 29717 ft | 415 kts | 303° |
| 2026-05-06 13:46 | 42.19826 | 10.92202 | 30043 ft | 417 kts | 303° |
| 2026-05-06 13:46 | 42.21734 | 10.89230 | 30367 ft | 420 kts | 303° |
| 2026-05-06 13:47 | 42.23675 | 10.86249 | 30664 ft | 424 kts | 305° |
| 2026-05-06 13:47 | 42.25783 | 10.83405 | 30932 ft | 431 kts | 309° |
| 2026-05-06 13:47 | 42.28090 | 10.80758 | 31210 ft | 439 kts | 314° |
| 2026-05-06 13:47 | 42.30584 | 10.78351 | 31585 ft | 443 kts | 319° |
| 2026-05-06 13:48 | 42.33234 | 10.76221 | 32029 ft | 446 kts | 323° |
| 2026-05-06 13:48 | 42.36042 | 10.74371 | 32413 ft | 451 kts | 329° |
| 2026-05-06 13:48 | 42.38967 | 10.72803 | 32786 ft | 453 kts | 332° |
| 2026-05-06 13:48 | 42.41925 | 10.71338 | 33099 ft | 454 kts | 332° |
| 2026-05-06 13:49 | 42.44893 | 10.69890 | 33392 ft | 454 kts | 332° |
| 2026-05-06 13:49 | 42.47847 | 10.68448 | 33715 ft | 454 kts | 332° |
| 2026-05-06 13:49 | 42.50825 | 10.66988 | 34036 ft | 453 kts | 332° |
| 2026-05-06 13:49 | 42.53789 | 10.65525 | 34331 ft | 453 kts | 332° |
| 2026-05-06 13:50 | 42.56747 | 10.64058 | 34545 ft | 454 kts | 332° |
| 2026-05-06 13:50 | 42.59728 | 10.62575 | 34730 ft | 455 kts | 332° |
| 2026-05-06 13:50 | 42.62669 | 10.61112 | 34924 ft | 455 kts | 332° |
| 2026-05-06 13:50 | 42.65662 | 10.59619 | 35091 ft | 456 kts | 332° |
| 2026-05-06 13:51 | 42.68660 | 10.58127 | 35270 ft | 457 kts | 332° |
| 2026-05-06 13:51 | 42.71652 | 10.56631 | 35423 ft | 458 kts | 333° |
| 2026-05-06 13:51 | 42.74639 | 10.55139 | 35583 ft | 459 kts | 333° |
| 2026-05-06 13:51 | 42.77607 | 10.53655 | 35749 ft | 459 kts | 333° |
| 2026-05-06 13:52 | 42.80636 | 10.52141 | 35899 ft | 459 kts | 333° |
| 2026-05-06 13:52 | 42.83611 | 10.50649 | 35914 ft | 460 kts | 333° |
| 2026-05-06 13:52 | 42.89635 | 10.47625 | 35918 ft | 460 kts | 333° |
| 2026-05-06 13:53 | 42.95631 | 10.44610 | 35917 ft | 459 kts | 333° |
| 2026-05-06 13:53 | 43.01651 | 10.41571 | 35914 ft | 460 kts | 333° |
| 2026-05-06 13:54 | 43.07630 | 10.38549 | 35908 ft | 459 kts | 333° |
| 2026-05-06 13:54 | 43.13598 | 10.35281 | 35905 ft | 456 kts | 328° |
| 2026-05-06 13:55 | 43.19162 | 10.31219 | 35910 ft | 449 kts | 321° |
| 2026-05-06 13:55 | 43.24271 | 10.26368 | 35911 ft | 443 kts | 315° |
| 2026-05-06 13:56 | 43.29114 | 10.21147 | 35917 ft | 443 kts | 314° |
| 2026-05-06 13:56 | 43.33966 | 10.15872 | 35913 ft | 443 kts | 314° |
| 2026-05-06 13:57 | 43.38809 | 10.10611 | 35911 ft | 443 kts | 314° |
| 2026-05-06 13:57 | 43.43635 | 10.05365 | 35911 ft | 443 kts | 314° |
| 2026-05-06 13:58 | 43.48504 | 10.00067 | 35911 ft | 443 kts | 314° |
| 2026-05-06 13:58 | 43.53334 | 9.94799 | 35912 ft | 445 kts | 314° |
| 2026-05-06 13:59 | 43.58197 | 9.89484 | 35909 ft | 446 kts | 314° |
| 2026-05-06 13:59 | 43.63073 | 9.84145 | 35910 ft | 446 kts | 314° |
| 2026-05-06 14:00 | 43.67933 | 9.78811 | 35911 ft | 446 kts | 314° |
| 2026-05-06 14:00 | 43.72767 | 9.73495 | 35911 ft | 446 kts | 314° |
| 2026-05-06 14:01 | 43.77635 | 9.68129 | 35901 ft | 446 kts | 314° |
| 2026-05-06 14:01 | 43.82502 | 9.62755 | 35899 ft | 447 kts | 314° |
| 2026-05-06 14:02 | 43.87324 | 9.57414 | 35895 ft | 447 kts | 314° |
| 2026-05-06 14:02 | 43.92179 | 9.52027 | 35889 ft | 447 kts | 314° |
| 2026-05-06 14:03 | 43.97042 | 9.46621 | 35882 ft | 448 kts | 314° |
| 2026-05-06 14:03 | 44.01904 | 9.41204 | 35886 ft | 449 kts | 314° |
| 2026-05-06 14:04 | 44.06766 | 9.35777 | 35881 ft | 448 kts | 314° |
| 2026-05-06 14:04 | 44.11591 | 9.30382 | 35876 ft | 447 kts | 313° |
| 2026-05-06 14:05 | 44.16412 | 9.24972 | 35867 ft | 448 kts | 313° |
| 2026-05-06 14:05 | 44.21246 | 9.19540 | 35863 ft | 447 kts | 313° |
| 2026-05-06 14:06 | 44.26090 | 9.14085 | 35856 ft | 447 kts | 313° |
| 2026-05-06 14:06 | 44.30903 | 9.08652 | 35850 ft | 447 kts | 313° |
| 2026-05-06 14:07 | 44.35746 | 9.03173 | 35853 ft | 448 kts | 313° |
| 2026-05-06 14:07 | 44.40547 | 8.97730 | 35857 ft | 449 kts | 312° |
| 2026-05-06 14:08 | 44.45388 | 8.92226 | 35856 ft | 450 kts | 313° |
| 2026-05-06 14:08 | 44.50245 | 8.86698 | 35860 ft | 451 kts | 313° |
| 2026-05-06 14:09 | 44.55091 | 8.81170 | 35866 ft | 450 kts | 313° |
| 2026-05-06 14:09 | 44.59945 | 8.75617 | 35860 ft | 451 kts | 313° |
| 2026-05-06 14:10 | 44.64774 | 8.70083 | 35857 ft | 452 kts | 313° |
| 2026-05-06 14:10 | 44.69633 | 8.64500 | 35843 ft | 450 kts | 313° |
| 2026-05-06 14:11 | 44.74483 | 8.58915 | 35812 ft | 451 kts | 313° |
| 2026-05-06 14:11 | 44.79324 | 8.53331 | 35825 ft | 451 kts | 313° |
| 2026-05-06 14:12 | 44.84148 | 8.47750 | 35819 ft | 452 kts | 313° |
| 2026-05-06 14:12 | 44.89016 | 8.42110 | 35808 ft | 451 kts | 313° |
| 2026-05-06 14:13 | 44.93842 | 8.36502 | 35780 ft | 452 kts | 313° |
| 2026-05-06 14:13 | 44.98687 | 8.30860 | 35781 ft | 453 kts | 312° |
| 2026-05-06 14:14 | 45.03539 | 8.25196 | 35787 ft | 454 kts | 312° |
| 2026-05-06 14:14 | 45.08399 | 8.19510 | 35803 ft | 454 kts | 313° |
| 2026-05-06 14:15 | 45.13753 | 8.13236 | 35821 ft | 453 kts | 312° |
| 2026-05-06 14:15 | 45.18613 | 8.07526 | 35805 ft | 453 kts | 313° |
| 2026-05-06 14:16 | 45.23421 | 8.01856 | 35818 ft | 454 kts | 313° |
| 2026-05-06 14:16 | 45.28268 | 7.96131 | 35822 ft | 455 kts | 313° |
| 2026-05-06 14:17 | 45.33120 | 7.90391 | 35834 ft | 455 kts | 313° |
| 2026-05-06 14:17 | 45.37983 | 7.84622 | 35840 ft | 454 kts | 313° |
| 2026-05-06 14:18 | 45.42805 | 7.78887 | 35855 ft | 455 kts | 313° |
| 2026-05-06 14:18 | 45.47624 | 7.73141 | 35862 ft | 455 kts | 313° |
| 2026-05-06 14:19 | 45.52483 | 7.67338 | 35876 ft | 455 kts | 314° |
| 2026-05-06 14:19 | 45.57298 | 7.61574 | 35885 ft | 456 kts | 314° |
| 2026-05-06 14:20 | 45.62145 | 7.55752 | 35895 ft | 457 kts | 314° |
| 2026-05-06 14:20 | 45.66976 | 7.49943 | 35893 ft | 455 kts | 314° |
| 2026-05-06 14:21 | 45.71815 | 7.44101 | 35895 ft | 457 kts | 314° |
| 2026-05-06 14:21 | 45.76643 | 7.38259 | 35904 ft | 455 kts | 314° |
| 2026-05-06 14:22 | 45.81613 | 7.32615 | 35918 ft | 459 kts | 318° |
| 2026-05-06 14:22 | 45.86848 | 7.27289 | 35925 ft | 461 kts | 319° |
| 2026-05-06 14:23 | 45.92070 | 7.21992 | 35906 ft | 461 kts | 319° |
| 2026-05-06 14:23 | 45.97290 | 7.16669 | 35914 ft | 462 kts | 319° |
| 2026-05-06 14:24 | 46.02511 | 7.11338 | 35892 ft | 462 kts | 319° |
| 2026-05-06 14:24 | 46.07724 | 7.05991 | 35887 ft | 462 kts | 319° |
| 2026-05-06 14:25 | 46.12948 | 7.00619 | 35897 ft | 462 kts | 319° |
| 2026-05-06 14:25 | 46.18174 | 6.95232 | 35922 ft | 461 kts | 319° |
| 2026-05-06 14:26 | 46.23387 | 6.89840 | 35918 ft | 462 kts | 319° |
| 2026-05-06 14:26 | 46.28596 | 6.84440 | 35916 ft | 462 kts | 320° |
| 2026-05-06 14:27 | 46.33804 | 6.79026 | 35905 ft | 463 kts | 319° |
| 2026-05-06 14:27 | 46.39014 | 6.73596 | 35896 ft | 463 kts | 320° |
| 2026-05-06 14:28 | 46.44318 | 6.68398 | 35901 ft | 466 kts | 324° |
| 2026-05-06 14:28 | 46.50053 | 6.63963 | 35881 ft | 470 kts | 330° |
| 2026-05-06 14:29 | 46.55955 | 6.59826 | 35886 ft | 470 kts | 330° |
| 2026-05-06 14:29 | 46.61805 | 6.55722 | 35896 ft | 470 kts | 330° |
| 2026-05-06 14:30 | 46.67701 | 6.51560 | 35881 ft | 470 kts | 330° |
| 2026-05-06 14:30 | 46.73525 | 6.47430 | 35889 ft | 470 kts | 330° |
| 2026-05-06 14:31 | 46.79421 | 6.43237 | 35874 ft | 470 kts | 330° |
| 2026-05-06 14:31 | 46.82349 | 6.41152 | 36060 ft | 470 kts | 331° |
| 2026-05-06 14:31 | 46.85242 | 6.39086 | 35963 ft | 468 kts | 331° |
| 2026-05-06 14:32 | 46.91042 | 6.34943 | 35901 ft | 468 kts | 330° |
| 2026-05-06 14:32 | 46.96910 | 6.30736 | 35888 ft | 467 kts | 330° |
| 2026-05-06 14:33 | 47.02730 | 6.26552 | 35883 ft | 466 kts | 330° |
| 2026-05-06 14:33 | 47.08535 | 6.22378 | 35887 ft | 466 kts | 330° |
| 2026-05-06 14:34 | 47.14354 | 6.18190 | 35889 ft | 466 kts | 330° |
| 2026-05-06 14:34 | 47.20157 | 6.13999 | 35885 ft | 466 kts | 330° |
| 2026-05-06 14:35 | 47.25972 | 6.09785 | 35889 ft | 466 kts | 330° |
| 2026-05-06 14:35 | 47.31986 | 6.06196 | 35882 ft | 470 kts | 340° |
| 2026-05-06 14:36 | 47.38366 | 6.04043 | 35882 ft | 472 kts | 349° |
| 2026-05-06 14:36 | 47.44892 | 6.03425 | 35888 ft | 474 kts | 358° |
| 2026-05-06 14:37 | 47.51463 | 6.03596 | 35881 ft | 474 kts | 360° |
| 2026-05-06 14:37 | 47.58020 | 6.03796 | 35884 ft | 474 kts | 359° |
| 2026-05-06 14:38 | 47.64616 | 6.03959 | 35887 ft | 474 kts | 359° |
| 2026-05-06 14:38 | 47.71168 | 6.04108 | 35879 ft | 474 kts | 359° |
| 2026-05-06 14:39 | 47.77787 | 6.04282 | 35879 ft | 474 kts | 360° |
| 2026-05-06 14:39 | 47.84326 | 6.04494 | 35877 ft | 474 kts | 360° |
| 2026-05-06 14:40 | 47.90907 | 6.04705 | 35868 ft | 473 kts | 360° |
| 2026-05-06 14:40 | 47.97491 | 6.04910 | 35858 ft | 473 kts | 360° |
| 2026-05-06 14:41 | 48.04031 | 6.05113 | 35855 ft | 473 kts | 360° |
| 2026-05-06 14:41 | 48.10577 | 6.05318 | 35854 ft | 473 kts | 360° |
| 2026-05-06 14:42 | 48.17189 | 6.05523 | 35858 ft | 473 kts | 360° |
| 2026-05-06 14:42 | 48.23724 | 6.05726 | 35868 ft | 473 kts | 360° |
| 2026-05-06 14:43 | 48.30278 | 6.05929 | 35870 ft | 472 kts | 360° |
| 2026-05-06 14:43 | 48.36846 | 6.06197 | 35868 ft | 471 kts | 0° |
| 2026-05-06 14:44 | 48.43366 | 6.06518 | 35873 ft | 471 kts | 0° |
| 2026-05-06 14:45 | 48.53143 | 6.06991 | 35867 ft | 471 kts | 1° |
| 2026-05-06 14:45 | 48.59678 | 6.07302 | 35866 ft | 470 kts | 1° |
| 2026-05-06 14:46 | 48.66218 | 6.07614 | 35870 ft | 470 kts | 0° |
| 2026-05-06 14:46 | 48.72702 | 6.07923 | 35860 ft | 469 kts | 0° |
| 2026-05-06 14:47 | 48.79232 | 6.08233 | 35861 ft | 469 kts | 0° |
| 2026-05-06 14:47 | 48.85699 | 6.08541 | 35849 ft | 468 kts | 1° |
| 2026-05-06 14:48 | 48.92227 | 6.08854 | 35856 ft | 468 kts | 1° |
| 2026-05-06 14:48 | 48.98713 | 6.09166 | 35864 ft | 468 kts | 1° |
| 2026-05-06 14:49 | 49.05228 | 6.09480 | 35856 ft | 468 kts | 1° |
| 2026-05-06 14:49 | 49.11691 | 6.09792 | 35854 ft | 468 kts | 1° |
| 2026-05-06 14:50 | 49.18208 | 6.10107 | 35850 ft | 467 kts | 1° |
| 2026-05-06 14:50 | 49.24707 | 6.10421 | 35854 ft | 467 kts | 0° |
| 2026-05-06 14:51 | 49.31148 | 6.10730 | 35855 ft | 466 kts | 0° |
| 2026-05-06 14:51 | 49.37628 | 6.11043 | 35847 ft | 465 kts | 0° |
| 2026-05-06 14:52 | 49.44027 | 6.10519 | 35851 ft | 463 kts | 350° |
| 2026-05-06 14:52 | 49.50248 | 6.08117 | 35860 ft | 461 kts | 338° |
| 2026-05-06 14:53 | 49.56010 | 6.03954 | 35850 ft | 458 kts | 328° |
| 2026-05-06 14:53 | 49.61426 | 5.98919 | 35858 ft | 457 kts | 327° |
| 2026-05-06 14:54 | 49.66861 | 5.93814 | 35852 ft | 457 kts | 327° |
| 2026-05-06 14:54 | 49.72298 | 5.88728 | 35861 ft | 456 kts | 326° |
| 2026-05-06 14:55 | 49.77417 | 5.83104 | 35854 ft | 454 kts | 320° |
| 2026-05-06 14:55 | 49.82364 | 5.77055 | 35856 ft | 453 kts | 320° |
| 2026-05-06 14:56 | 49.87270 | 5.71009 | 35852 ft | 453 kts | 320° |
| 2026-05-06 14:56 | 49.92201 | 5.64933 | 35853 ft | 452 kts | 320° |
| 2026-05-06 14:57 | 49.97091 | 5.58897 | 35850 ft | 452 kts | 320° |
| 2026-05-06 14:57 | 50.02008 | 5.52812 | 35850 ft | 453 kts | 320° |
| 2026-05-06 14:58 | 50.06903 | 5.46736 | 35850 ft | 453 kts | 320° |
| 2026-05-06 14:58 | 50.11794 | 5.40651 | 35867 ft | 452 kts | 320° |
| 2026-05-06 14:59 | 50.16825 | 5.34760 | 35871 ft | 453 kts | 323° |
| 2026-05-06 14:59 | 50.22006 | 5.29158 | 35876 ft | 452 kts | 323° |
| 2026-05-06 15:00 | 50.27156 | 5.23590 | 35880 ft | 452 kts | 323° |
| 2026-05-06 15:00 | 50.32303 | 5.17997 | 35882 ft | 451 kts | 323° |
| 2026-05-06 15:01 | 50.37442 | 5.12389 | 35878 ft | 451 kts | 323° |
| 2026-05-06 15:01 | 50.42577 | 5.06773 | 35875 ft | 451 kts | 323° |
| 2026-05-06 15:02 | 50.47681 | 5.01171 | 35876 ft | 451 kts | 323° |
| 2026-05-06 15:02 | 50.52807 | 4.95532 | 35874 ft | 451 kts | 323° |
| 2026-05-06 15:03 | 50.57946 | 4.89861 | 35878 ft | 451 kts | 323° |
| 2026-05-06 15:03 | 50.63062 | 4.84200 | 35702 ft | 451 kts | 323° |
| 2026-05-06 15:03 | 50.65603 | 4.81380 | 35369 ft | 450 kts | 323° |
| 2026-05-06 15:04 | 50.68150 | 4.78549 | 34892 ft | 450 kts | 324° |
| 2026-05-06 15:04 | 50.70715 | 4.75695 | 34314 ft | 452 kts | 324° |
| 2026-05-06 15:04 | 50.73305 | 4.72808 | 33692 ft | 455 kts | 324° |
| 2026-05-06 15:04 | 50.75893 | 4.69921 | 32948 ft | 459 kts | 324° |
| 2026-05-06 15:05 | 50.78491 | 4.67018 | 32177 ft | 461 kts | 324° |
| 2026-05-06 15:05 | 50.81103 | 4.64096 | 31421 ft | 462 kts | 324° |
| 2026-05-06 15:05 | 50.83704 | 4.61185 | 30627 ft | 462 kts | 324° |
| 2026-05-06 15:05 | 50.86313 | 4.58256 | 30103 ft | 455 kts | 324° |
| 2026-05-06 15:06 | 50.88716 | 4.55124 | 29626 ft | 447 kts | 317° |
| 2026-05-06 15:06 | 50.90826 | 4.51609 | 29147 ft | 440 kts | 310° |
| 2026-05-06 15:06 | 50.92634 | 4.47756 | 28676 ft | 433 kts | 303° |
| 2026-05-06 15:06 | 50.94230 | 4.43737 | 28207 ft | 427 kts | 301° |
| 2026-05-06 15:07 | 50.95759 | 4.39735 | 27744 ft | 422 kts | 301° |
| 2026-05-06 15:07 | 50.97263 | 4.35774 | 27275 ft | 417 kts | 301° |
| 2026-05-06 15:07 | 50.98746 | 4.31881 | 26888 ft | 413 kts | 300° |
| 2026-05-06 15:07 | 51.00236 | 4.27979 | 26384 ft | 410 kts | 300° |
| 2026-05-06 15:08 | 51.01692 | 4.24174 | 25908 ft | 407 kts | 300° |
| 2026-05-06 15:08 | 51.03149 | 4.20362 | 25437 ft | 404 kts | 300° |
| 2026-05-06 15:08 | 51.04604 | 4.16554 | 24958 ft | 400 kts | 300° |
| 2026-05-06 15:08 | 51.06025 | 4.12832 | 24496 ft | 397 kts | 300° |
| 2026-05-06 15:09 | 51.07448 | 4.09100 | 24039 ft | 394 kts | 300° |
| 2026-05-06 15:09 | 51.08967 | 4.05514 | 23580 ft | 391 kts | 307° |
| 2026-05-06 15:09 | 51.10806 | 4.02300 | 23123 ft | 389 kts | 316° |
| 2026-05-06 15:09 | 51.12874 | 3.99559 | 22676 ft | 386 kts | 322° |
| 2026-05-06 15:10 | 51.15035 | 3.97000 | 22226 ft | 384 kts | 323° |
| 2026-05-06 15:10 | 51.17165 | 3.94517 | 21796 ft | 381 kts | 323° |
| 2026-05-06 15:10 | 51.19287 | 3.92032 | 21366 ft | 378 kts | 323° |
| 2026-05-06 15:10 | 51.21390 | 3.89586 | 20921 ft | 375 kts | 326° |
| 2026-05-06 15:11 | 51.23695 | 3.87755 | 20472 ft | 373 kts | 340° |
| 2026-05-06 15:11 | 51.26208 | 3.86918 | 20035 ft | 371 kts | 355° |
| 2026-05-06 15:11 | 51.28767 | 3.86782 | 19600 ft | 369 kts | 358° |
| 2026-05-06 15:11 | 51.31325 | 3.86745 | 19177 ft | 366 kts | 359° |
| 2026-05-06 15:12 | 51.33874 | 3.86717 | 18746 ft | 363 kts | 359° |
| 2026-05-06 15:12 | 51.36375 | 3.86681 | 18334 ft | 361 kts | 359° |
| 2026-05-06 15:12 | 51.38866 | 3.86636 | 17887 ft | 358 kts | 358° |
| 2026-05-06 15:12 | 51.41361 | 3.86584 | 17445 ft | 356 kts | 358° |
| 2026-05-06 15:13 | 51.43807 | 3.86531 | 17019 ft | 354 kts | 358° |
| 2026-05-06 15:13 | 51.46262 | 3.86475 | 16583 ft | 352 kts | 358° |
| 2026-05-06 15:13 | 51.48681 | 3.86419 | 16125 ft | 350 kts | 358° |
| 2026-05-06 15:13 | 51.51094 | 3.86362 | 15684 ft | 348 kts | 358° |
| 2026-05-06 15:14 | 51.53525 | 3.86305 | 15229 ft | 346 kts | 358° |
| 2026-05-06 15:14 | 51.55912 | 3.86248 | 14771 ft | 344 kts | 358° |
| 2026-05-06 15:14 | 51.58295 | 3.86190 | 14319 ft | 342 kts | 358° |
| 2026-05-06 15:14 | 51.60643 | 3.86134 | 13884 ft | 340 kts | 358° |
| 2026-05-06 15:15 | 51.63019 | 3.86076 | 13459 ft | 338 kts | 358° |
| 2026-05-06 15:15 | 51.65342 | 3.86018 | 13028 ft | 336 kts | 358° |
| 2026-05-06 15:15 | 51.67667 | 3.85961 | 12607 ft | 334 kts | 358° |
| 2026-05-06 15:15 | 51.69969 | 3.85917 | 12188 ft | 331 kts | 360° |
| 2026-05-06 15:16 | 51.72232 | 3.86573 | 11744 ft | 331 kts | 20° |
| 2026-05-06 15:16 | 51.74174 | 3.88454 | 11368 ft | 322 kts | 39° |
| 2026-05-06 15:16 | 51.75800 | 3.90774 | 10968 ft | 306 kts | 41° |
| 2026-05-06 15:16 | 51.77324 | 3.93019 | 10587 ft | 290 kts | 41° |
| 2026-05-06 15:17 | 51.78791 | 3.95174 | 10306 ft | 286 kts | 41° |
| 2026-05-06 15:17 | 51.80282 | 3.97350 | 10202 ft | 286 kts | 40° |
| 2026-05-06 15:17 | 51.81745 | 3.99474 | 10052 ft | 286 kts | 40° |
| 2026-05-06 15:17 | 51.83225 | 4.01618 | 9916 ft | 285 kts | 40° |
| 2026-05-06 15:18 | 51.84703 | 4.03756 | 9645 ft | 284 kts | 40° |
| 2026-05-06 15:18 | 51.86170 | 4.05881 | 9358 ft | 282 kts | 40° |
| 2026-05-06 15:18 | 51.87607 | 4.07963 | 9045 ft | 279 kts | 41° |
| 2026-05-06 15:18 | 51.89057 | 4.10065 | 8717 ft | 277 kts | 41° |
| 2026-05-06 15:19 | 51.90472 | 4.12117 | 8378 ft | 275 kts | 41° |
| 2026-05-06 15:19 | 51.91910 | 4.14125 | 8064 ft | 273 kts | 39° |
| 2026-05-06 15:19 | 51.93372 | 4.16063 | 7739 ft | 271 kts | 38° |
| 2026-05-06 15:19 | 51.94836 | 4.17989 | 7385 ft | 269 kts | 38° |
| 2026-05-06 15:20 | 51.96272 | 4.19881 | 7041 ft | 267 kts | 39° |
| 2026-05-06 15:20 | 51.97713 | 4.21782 | 6702 ft | 266 kts | 39° |
| 2026-05-06 15:20 | 51.99141 | 4.23670 | 6389 ft | 264 kts | 39° |
| 2026-05-06 15:20 | 52.00546 | 4.25528 | 6067 ft | 262 kts | 39° |
| 2026-05-06 15:21 | 52.01962 | 4.27404 | 5724 ft | 260 kts | 39° |
| 2026-05-06 15:21 | 52.03349 | 4.29243 | 5400 ft | 258 kts | 39° |
| 2026-05-06 15:21 | 52.04722 | 4.31065 | 5062 ft | 256 kts | 39° |
| 2026-05-06 15:21 | 52.06091 | 4.32884 | 4724 ft | 254 kts | 39° |
| 2026-05-06 15:22 | 52.07462 | 4.34706 | 4395 ft | 252 kts | 39° |
| 2026-05-06 15:22 | 52.08808 | 4.36496 | 4142 ft | 247 kts | 39° |
| 2026-05-06 15:22 | 52.10036 | 4.38131 | 3929 ft | 241 kts | 39° |
| 2026-05-06 15:22 | 52.11367 | 4.39904 | 3665 ft | 237 kts | 39° |
| 2026-05-06 15:23 | 52.12626 | 4.41581 | 3398 ft | 233 kts | 39° |
| 2026-05-06 15:23 | 52.13860 | 4.43226 | 3192 ft | 226 kts | 39° |
| 2026-05-06 15:23 | 52.15056 | 4.44822 | 3033 ft | 218 kts | 39° |
| 2026-05-06 15:23 | 52.16202 | 4.46353 | 2827 ft | 207 kts | 39° |
| 2026-05-06 15:24 | 52.17274 | 4.47786 | 2591 ft | 195 kts | 39° |
| 2026-05-06 15:24 | 52.18287 | 4.49142 | 2394 ft | 186 kts | 39° |
| 2026-05-06 15:24 | 52.19252 | 4.50434 | 2286 ft | 174 kts | 39° |
| 2026-05-06 15:24 | 52.20165 | 4.51656 | 2100 ft | 166 kts | 39° |
| 2026-05-06 15:25 | 52.20932 | 4.53018 | 2004 ft | 164 kts | 52° |
| 2026-05-06 15:25 | 52.21573 | 4.54559 | 1992 ft | 165 kts | 55° |
| 2026-05-06 15:25 | 52.22192 | 4.56141 | 1985 ft | 166 kts | 56° |
| 2026-05-06 15:25 | 52.22804 | 4.57742 | 1995 ft | 166 kts | 56° |
| 2026-05-06 15:26 | 52.23406 | 4.59323 | 1979 ft | 160 kts | 56° |
| 2026-05-06 15:26 | 52.23973 | 4.60796 | 1879 ft | 143 kts | 56° |
| 2026-05-06 15:26 | 52.24476 | 4.62092 | 1675 ft | 134 kts | 56° |
| 2026-05-06 15:26 | 52.24963 | 4.63368 | 1408 ft | 130 kts | 56° |
| 2026-05-06 15:27 | 52.25446 | 4.64605 | 1262 ft | 130 kts | 56° |
| 2026-05-06 15:27 | 52.25916 | 4.65875 | 1104 ft | 130 kts | 57° |
| 2026-05-06 15:27 | 52.26389 | 4.67137 | 930 ft | 129 kts | 57° |
| 2026-05-06 15:27 | 52.26854 | 4.68391 | 808 ft | 130 kts | 57° |
| 2026-05-06 15:28 | 52.27335 | 4.69638 | 621 ft | 129 kts | 58° |
| 2026-05-06 15:28 | 52.27836 | 4.70852 | 432 ft | 128 kts | 59° |
| 2026-05-06 15:28 | 52.28296 | 4.72098 | 237 ft | 128 kts | 59° |
| 2026-05-06 15:28 | 52.28765 | 4.73335 | 78 ft | 128 kts | 60° |
| 2026-05-06 15:29 | 52.29226 | 4.74525 | 0 ft | 115 kts | 61° |
| 2026-05-06 15:29 | 52.29567 | 4.75428 | 0 ft | 69 kts | 59° |
| 2026-05-06 15:29 | 52.29777 | 4.75976 | 0 ft | 51 kts | 58° |
| 2026-05-06 15:29 | 52.29930 | 4.76376 | 0 ft | 26 kts | 57° |
| 2026-05-06 15:30 | 52.30037 | 4.76550 | 0 ft | 18 kts | 30° |
| 2026-05-06 15:30 | 52.30146 | 4.76641 | 0 ft | 16 kts | 26° |
| 2026-05-06 15:30 | 52.30249 | 4.76729 | 0 ft | 16 kts | 23° |
| 2026-05-06 15:30 | 52.30358 | 4.76731 | 0 ft | 15 kts | 17° |
| 2026-05-06 15:31 | 52.30429 | 4.76867 | 0 ft | 16 kts | 59° |
| 2026-05-06 15:31 | 52.30489 | 4.77026 | 0 ft | 17 kts | 58° |
| 2026-05-06 15:31 | 52.30557 | 4.77205 | 0 ft | 18 kts | 58° |
| 2026-05-06 15:32 | 52.30732 | 4.77459 | 0 ft | 17 kts | 3° |
| 2026-05-06 15:32 | 52.30854 | 4.77471 | 0 ft | 17 kts | 4° |
| 2026-05-06 15:32 | 52.30973 | 4.77482 | 0 ft | 17 kts | 2° |
| 2026-05-06 15:32 | 52.31065 | 4.77422 | 0 ft | 15 kts | 286° |
| 2026-05-06 15:33 | 52.31074 | 4.77249 | 0 ft | 15 kts | 272° |
| 2026-05-06 15:33 | 52.31069 | 4.77133 | 0 ft | 7 kts | 225° |
| 2026-05-06 15:33 | 52.31024 | 4.77121 | 0 ft | 5 kts | 183° |
| 2026-05-06 15:33 | 52.31010 | 4.77119 | 0 ft | 0 kts | 183° |